createdAt,value
2023-04-08T00:01:14.819Z,7.39
2023-04-08T00:03:42.984Z,7.33
2023-04-08T00:06:12.134Z,7.33
2023-04-08T00:08:40.176Z,7.34
2023-04-08T00:11:08.296Z,7.30
2023-04-08T00:13:38.053Z,7.25
2023-04-08T00:16:06.415Z,7.10
2023-04-08T00:18:34.486Z,7.18
2023-04-08T00:21:02.571Z,7.36
2023-04-08T00:23:30.698Z,7.17
2023-04-08T00:25:58.788Z,7.24
2023-04-08T00:28:26.975Z,7.28
2023-04-08T00:30:57.533Z,7.11
2023-04-08T00:33:26.099Z,6.94
2023-04-08T00:35:54.433Z,7.04
2023-04-08T00:38:22.596Z,7.17
2023-04-08T00:40:50.817Z,7.27
2023-04-08T00:43:20.917Z,7.30
2023-04-08T00:45:49.486Z,7.23
2023-04-08T00:48:19.088Z,7.24
2023-04-08T00:50:47.369Z,7.25
2023-04-08T00:53:19.016Z,7.18
2023-04-08T00:55:47.429Z,7.06
2023-04-08T00:58:16.614Z,7.06
2023-04-08T01:00:51.401Z,7.11
2023-04-08T01:03:29.596Z,7.14
2023-04-08T01:06:04.448Z,7.19
2023-04-08T01:08:34.219Z,7.22
2023-04-08T01:11:04.766Z,7.28
2023-04-08T01:13:38.838Z,7.30
2023-04-08T01:16:08.237Z,7.20
2023-04-08T01:18:39.233Z,7.31
2023-04-08T01:21:08.929Z,7.21
2023-04-08T01:23:44.527Z,7.18
2023-04-08T01:26:22.488Z,7.27
2023-04-08T01:28:53.793Z,7.24
2023-04-08T01:31:23.953Z,7.20
2023-04-08T01:33:53.494Z,7.22
2023-04-08T01:36:22.788Z,7.26
2023-04-08T01:38:51.972Z,7.18
2023-04-08T01:41:22.505Z,7.12
2023-04-08T01:43:52.153Z,7.17
2023-04-08T01:46:22.047Z,7.09
2023-04-08T01:48:52.164Z,7.14
2023-04-08T01:51:21.407Z,7.08
2023-04-08T01:53:49.525Z,7.00
2023-04-08T01:56:18.414Z,6.96
2023-04-08T01:58:53.016Z,6.92
2023-04-08T02:01:24.357Z,7.00
2023-04-08T02:03:56.572Z,7.00
2023-04-08T02:06:25.914Z,7.08
2023-04-08T02:08:55.375Z,7.12
2023-04-08T02:11:23.945Z,7.07
2023-04-08T02:13:54.742Z,6.97
2023-04-08T02:16:25.754Z,6.91
2023-04-08T02:18:58.339Z,6.99
2023-04-08T02:21:34.432Z,6.82
2023-04-08T02:24:06.259Z,6.75
2023-04-08T02:26:36.213Z,6.76
2023-04-08T02:29:07.725Z,6.69
2023-04-08T02:31:36.825Z,6.71
2023-04-08T02:34:07.243Z,6.74
2023-04-08T02:36:36.185Z,6.73
2023-04-08T02:39:04.646Z,6.76
2023-04-08T02:41:32.979Z,6.66
2023-04-08T02:44:01.054Z,6.57
2023-04-08T02:46:30.453Z,6.54
2023-04-08T02:48:58.680Z,6.61
2023-04-08T02:51:27.994Z,6.65
2023-04-08T02:53:56.281Z,6.61
2023-04-08T02:56:24.409Z,6.46
2023-04-08T02:58:52.612Z,6.47
2023-04-08T03:01:20.859Z,6.47
2023-04-08T03:03:50.685Z,6.36
2023-04-08T03:06:18.862Z,6.45
2023-04-08T03:08:48.080Z,6.42
2023-04-08T03:11:16.302Z,6.53
2023-04-08T03:13:44.512Z,6.61
2023-04-08T03:16:12.660Z,6.50
2023-04-08T03:18:41.108Z,6.40
2023-04-08T03:21:10.859Z,6.28
2023-04-08T03:23:38.972Z,6.37
2023-04-08T03:26:07.216Z,6.40
2023-04-08T03:28:35.808Z,6.33
2023-04-08T03:31:05.098Z,6.32
2023-04-08T03:33:33.373Z,6.19
2023-04-08T03:36:01.507Z,6.20
2023-04-08T03:38:31.358Z,6.23
2023-04-08T03:40:59.947Z,6.34
2023-04-08T03:43:28.157Z,6.36
2023-04-08T03:45:57.338Z,6.40
2023-04-08T03:48:25.449Z,6.48
2023-04-08T03:50:53.684Z,6.51
2023-04-08T03:53:21.884Z,6.53
2023-04-08T03:55:52.194Z,6.58
2023-04-08T03:58:20.468Z,6.54
2023-04-08T04:00:49.978Z,6.52
2023-04-08T04:03:18.685Z,6.51
2023-04-08T04:05:46.908Z,6.55
2023-04-08T04:08:14.978Z,6.55
2023-04-08T04:10:43.104Z,6.55
2023-04-08T04:13:12.633Z,6.43
2023-04-08T04:15:41.158Z,6.52
2023-04-08T04:18:09.442Z,6.53
2023-04-08T04:20:40.913Z,6.53
2023-04-08T04:23:09.056Z,6.51
2023-04-08T04:25:39.543Z,6.43
2023-04-08T04:28:08.138Z,6.30
2023-04-08T04:30:39.615Z,6.22
2023-04-08T04:33:08.028Z,6.17
2023-04-08T04:35:36.239Z,6.20
2023-04-08T04:38:05.762Z,6.05
2023-04-08T04:40:34.759Z,6.11
2023-04-08T04:43:03.057Z,6.22
2023-04-08T04:45:31.334Z,6.21
2023-04-08T04:48:00.933Z,6.34
2023-04-08T04:50:29.093Z,6.51
2023-04-08T04:52:57.134Z,6.34
2023-04-08T04:55:27.971Z,6.35
2023-04-08T04:57:56.136Z,6.50
2023-04-08T05:00:24.420Z,6.50
2023-04-08T05:02:52.831Z,6.37
2023-04-08T05:05:22.666Z,6.35
2023-04-08T05:07:50.882Z,6.36
2023-04-08T05:10:19.255Z,6.39
2023-04-08T05:12:47.298Z,6.36
2023-04-08T05:15:15.805Z,6.36
2023-04-08T05:17:44.006Z,6.51
2023-04-08T05:20:17.724Z,6.82
2023-04-08T05:22:47.394Z,7.12
2023-04-08T05:25:15.692Z,7.26
2023-04-08T05:27:43.885Z,7.43
2023-04-08T05:30:12.864Z,7.17
2023-04-08T05:32:41.186Z,7.28
2023-04-08T05:35:10.845Z,7.46
2023-04-08T05:37:38.910Z,7.62
2023-04-08T05:40:09.775Z,7.75
2023-04-08T05:42:38.020Z,7.90
2023-04-08T05:45:07.180Z,7.92
2023-04-08T05:47:35.382Z,7.96
2023-04-08T05:50:03.856Z,7.97
2023-04-08T05:52:31.909Z,8.10
2023-04-08T05:54:59.957Z,7.94
2023-04-08T05:57:29.455Z,8.01
2023-04-08T05:59:57.652Z,8.14
2023-04-08T06:02:26.102Z,8.34
2023-04-08T06:04:54.490Z,8.53
2023-04-08T06:07:22.669Z,8.66
2023-04-08T06:09:50.888Z,8.70
2023-04-08T06:12:19.203Z,8.45
2023-04-08T06:14:48.730Z,8.39
2023-04-08T06:17:16.862Z,8.67
2023-04-08T06:19:44.933Z,8.97
2023-04-08T06:22:13.031Z,8.91
2023-04-08T06:24:41.320Z,8.79
2023-04-08T06:27:09.553Z,8.83
2023-04-08T06:29:37.706Z,8.47
2023-04-08T06:32:07.869Z,8.66
2023-04-08T06:34:36.157Z,8.87
2023-04-08T06:37:04.689Z,8.94
2023-04-08T06:39:32.934Z,9.17
2023-04-08T06:42:01.735Z,9.22
2023-04-08T06:44:31.433Z,9.37
2023-04-08T06:46:59.536Z,9.00
2023-04-08T06:49:30.856Z,8.93
2023-04-08T06:51:59.045Z,9.34
2023-04-08T06:54:27.157Z,9.66
2023-04-08T06:56:55.472Z,9.75
2023-04-08T06:59:23.766Z,9.62
2023-04-08T07:01:52.010Z,9.33
2023-04-08T07:04:21.124Z,9.49
2023-04-08T07:06:51.152Z,9.33
2023-04-08T07:09:19.616Z,9.53
2023-04-08T07:11:47.825Z,9.51
2023-04-08T07:14:16.083Z,9.38
2023-04-08T07:16:44.403Z,9.88
2023-04-08T07:19:12.581Z,10.31
2023-04-08T07:21:41.625Z,10.24
2023-04-08T07:24:11.360Z,10.65
2023-04-08T07:26:39.926Z,10.77
2023-04-08T07:29:08.139Z,10.22
2023-04-08T07:31:36.223Z,9.61
2023-04-08T07:34:04.329Z,10.00
2023-04-08T07:36:32.630Z,10.31
2023-04-08T07:39:01.114Z,10.53
2023-04-08T07:41:30.781Z,10.38
2023-04-08T07:43:59.047Z,10.61
2023-04-08T07:46:27.183Z,10.73
2023-04-08T07:48:55.387Z,10.42
2023-04-08T07:51:23.716Z,10.49
2023-04-08T07:53:52.026Z,10.95
2023-04-08T07:56:20.324Z,11.00
2023-04-08T07:58:53.321Z,11.28
2023-04-08T08:01:23.854Z,11.21
2023-04-08T08:03:53.761Z,10.76
2023-04-08T08:06:22.677Z,10.66
2023-04-08T08:08:50.843Z,10.48
2023-04-08T08:11:19.028Z,11.01
2023-04-08T08:13:47.090Z,11.61
2023-04-08T08:16:16.952Z,11.62
2023-04-08T08:18:45.122Z,11.54
2023-04-08T08:21:13.312Z,11.88
2023-04-08T08:23:41.374Z,12.20
2023-04-08T08:26:11.143Z,12.00
2023-04-08T08:28:42.432Z,11.68
2023-04-08T08:31:10.596Z,11.78
2023-04-08T08:33:40.136Z,12.00
2023-04-08T08:36:08.519Z,11.65
2023-04-08T08:38:36.855Z,12.05
2023-04-08T08:41:05.213Z,11.94
2023-04-08T08:43:34.757Z,12.30
2023-04-08T08:46:03.779Z,12.31
2023-04-08T08:48:34.155Z,12.55
2023-04-08T08:51:09.322Z,12.15
2023-04-08T08:53:37.891Z,12.40
2023-04-08T08:56:17.870Z,12.04
2023-04-08T08:58:47.812Z,12.36
2023-04-08T09:01:35.782Z,12.26
2023-04-08T09:04:23.070Z,12.57
2023-04-08T09:07:10.682Z,12.79
2023-04-08T09:09:51.409Z,12.36
2023-04-08T09:12:20.379Z,12.30
2023-04-08T09:14:48.842Z,12.71
2023-04-08T09:17:17.523Z,13.15
2023-04-08T09:20:10.067Z,13.34
2023-04-08T09:22:58.137Z,13.55
2023-04-08T09:25:27.880Z,13.68
2023-04-08T09:27:56.581Z,13.76
2023-04-08T09:30:26.539Z,14.07
2023-04-08T09:32:57.908Z,14.36
2023-04-08T09:35:26.741Z,14.54
2023-04-08T09:37:56.617Z,14.36
2023-04-08T09:40:28.847Z,14.26
2023-04-08T09:43:00.086Z,13.98
2023-04-08T09:45:29.165Z,13.45
2023-04-08T09:48:05.532Z,13.16
2023-04-08T09:50:34.888Z,12.95
2023-04-08T09:53:15.531Z,12.87
2023-04-08T09:55:47.852Z,12.75
2023-04-08T09:58:20.932Z,13.04
2023-04-08T10:00:51.723Z,12.80
2023-04-08T10:03:31.039Z,13.01
2023-04-08T10:06:02.491Z,13.01
2023-04-08T10:08:33.105Z,12.50
2023-04-08T10:11:01.287Z,12.68
2023-04-08T10:13:30.142Z,12.91
2023-04-08T10:16:24.519Z,13.03
2023-04-08T10:18:56.032Z,13.37
2023-04-08T10:21:37.712Z,13.79
2023-04-08T10:24:11.984Z,13.44
2023-04-08T10:26:59.712Z,13.41
2023-04-08T10:29:50.860Z,13.33
2023-04-08T10:32:31.356Z,13.47
2023-04-08T10:34:59.518Z,13.48
2023-04-08T10:37:28.856Z,13.29
2023-04-08T10:39:58.817Z,13.40
2023-04-08T10:42:30.509Z,13.26
2023-04-08T10:45:03.491Z,13.90
2023-04-08T10:47:32.501Z,13.67
2023-04-08T10:50:01.453Z,13.57
2023-04-08T10:52:29.562Z,13.80
2023-04-08T10:54:59.238Z,14.17
2023-04-08T10:57:27.477Z,14.19
2023-04-08T10:59:56.337Z,14.28
2023-04-08T11:02:24.549Z,14.57
2023-04-08T11:04:56.006Z,14.73
2023-04-08T11:07:24.118Z,14.76
2023-04-08T11:09:52.785Z,14.36
2023-04-08T11:12:22.431Z,14.03
2023-04-08T11:14:53.210Z,13.27
2023-04-08T11:17:21.456Z,13.38
2023-04-08T11:19:49.786Z,13.77
2023-04-08T11:22:18.728Z,13.77
2023-04-08T11:24:47.314Z,14.03
2023-04-08T11:27:15.969Z,14.16
2023-04-08T11:29:46.232Z,14.29
2023-04-08T11:32:14.493Z,14.77
2023-04-08T11:34:43.158Z,15.15
2023-04-08T11:37:11.445Z,15.13
2023-04-08T11:39:44.116Z,14.93
2023-04-08T11:42:28.143Z,14.98
2023-04-08T11:44:57.958Z,14.89
2023-04-08T11:47:33.526Z,15.01
2023-04-08T11:50:03.145Z,14.58
2023-04-08T11:52:48.599Z,15.16
2023-04-08T11:55:25.025Z,15.47
2023-04-08T11:57:53.650Z,15.53
2023-04-08T12:00:24.774Z,15.66
2023-04-08T12:02:53.706Z,15.59
2023-04-08T12:05:22.102Z,15.45
2023-04-08T12:07:50.178Z,15.60
2023-04-08T12:10:18.562Z,15.86
2023-04-08T12:12:46.637Z,16.06
2023-04-08T12:15:14.684Z,15.57
2023-04-08T12:17:44.742Z,15.17
2023-04-08T12:20:13.803Z,15.21
2023-04-08T12:22:42.038Z,15.54
2023-04-08T12:25:10.844Z,15.89
2023-04-08T12:27:38.982Z,16.05
2023-04-08T12:30:08.176Z,16.14
2023-04-08T12:32:36.294Z,16.27
2023-04-08T12:35:06.416Z,16.20
2023-04-08T12:37:34.543Z,15.87
2023-04-08T12:40:02.842Z,15.95
2023-04-08T12:42:31.339Z,16.25
2023-04-08T12:44:59.484Z,16.44
2023-04-08T12:47:27.678Z,16.59
2023-04-08T12:49:55.965Z,16.71
2023-04-08T12:52:25.462Z,16.80
2023-04-08T12:54:53.698Z,16.96
2023-04-08T12:57:21.825Z,17.07
2023-04-08T12:59:50.032Z,17.06
2023-04-08T13:02:18.263Z,16.95
2023-04-08T13:04:46.386Z,16.53
2023-04-08T13:07:14.477Z,16.47
2023-04-08T13:09:45.462Z,16.47
2023-04-08T13:12:14.641Z,16.51
2023-04-08T13:14:42.850Z,16.71
2023-04-08T13:17:11.286Z,16.62
2023-04-08T13:19:39.470Z,16.65
2023-04-08T13:22:07.591Z,16.79
2023-04-08T13:24:35.830Z,16.88
2023-04-08T13:27:05.332Z,16.55
2023-04-08T13:29:33.517Z,16.64
2023-04-08T13:32:02.188Z,16.92
2023-04-08T13:34:30.519Z,16.91
2023-04-08T13:36:58.641Z,17.00
2023-04-08T13:39:27.330Z,16.99
2023-04-08T13:41:56.664Z,17.04
2023-04-08T13:44:26.641Z,17.00
2023-04-08T13:46:55.228Z,16.94
2023-04-08T13:49:24.170Z,16.97
2023-04-08T13:51:52.466Z,17.17
2023-04-08T13:54:20.738Z,17.18
2023-04-08T13:56:48.836Z,17.37
2023-04-08T13:59:17.031Z,17.36
2023-04-08T14:01:46.628Z,17.40
2023-04-08T14:04:15.026Z,17.55
2023-04-08T14:06:44.020Z,17.48
2023-04-08T14:09:13.275Z,17.01
2023-04-08T14:11:41.597Z,16.82
2023-04-08T14:14:09.772Z,16.70
2023-04-08T14:16:37.958Z,16.58
2023-04-08T14:19:07.554Z,16.36
2023-04-08T14:21:35.748Z,16.07
2023-04-08T14:24:03.926Z,15.83
2023-04-08T14:26:35.828Z,15.70
2023-04-08T14:29:05.699Z,15.33
2023-04-08T14:31:34.503Z,15.24
2023-04-08T14:34:03.297Z,15.29
2023-04-08T14:36:33.050Z,15.35
2023-04-08T14:39:01.843Z,15.08
2023-04-08T14:41:30.210Z,15.11
2023-04-08T14:43:58.363Z,14.97
2023-04-08T14:46:29.272Z,14.88
2023-04-08T14:48:58.885Z,14.79
2023-04-08T14:51:27.170Z,14.49
2023-04-08T14:53:57.034Z,14.35
2023-04-08T14:56:25.198Z,14.40
2023-04-08T14:58:53.840Z,14.41
2023-04-08T15:01:22.239Z,14.29
2023-04-08T15:03:50.535Z,14.24
2023-04-08T15:06:20.967Z,14.25
2023-04-08T15:08:49.408Z,14.20
2023-04-08T15:11:21.113Z,14.17
2023-04-08T15:13:49.477Z,14.17
2023-04-08T15:16:17.619Z,14.13
2023-04-08T15:18:46.123Z,14.17
2023-04-08T15:21:14.409Z,14.10
2023-04-08T15:23:43.636Z,14.05
2023-04-08T15:26:11.811Z,14.08
2023-04-08T15:28:41.726Z,14.01
2023-04-08T15:31:10.178Z,14.01
2023-04-08T15:33:41.587Z,14.03
2023-04-08T15:36:09.875Z,14.02
2023-04-08T15:38:38.445Z,13.97
2023-04-08T15:41:06.634Z,13.97
2023-04-08T15:43:34.985Z,13.94
2023-04-08T15:46:04.651Z,13.79
2023-04-08T15:48:32.888Z,13.80
2023-04-08T15:51:08.383Z,13.78
2023-04-08T15:53:36.829Z,13.68
2023-04-08T15:56:04.928Z,13.62
2023-04-08T15:58:32.977Z,13.52
2023-04-08T16:01:01.339Z,13.50
2023-04-08T16:03:31.156Z,13.49
2023-04-08T16:06:01.197Z,13.51
2023-04-08T16:08:29.590Z,13.44
2023-04-08T16:11:02.639Z,13.42
2023-04-08T16:13:31.184Z,13.43
2023-04-08T16:15:59.828Z,13.46
2023-04-08T16:18:28.338Z,13.40
2023-04-08T16:20:58.297Z,13.27
2023-04-08T16:23:26.706Z,13.15
2023-04-08T16:25:55.116Z,13.12
2023-04-08T16:28:23.515Z,13.13
2023-04-08T16:30:51.841Z,13.09
2023-04-08T16:33:24.101Z,13.04
2023-04-08T16:35:52.599Z,12.96
2023-04-08T16:38:22.435Z,13.00
2023-04-08T16:40:50.538Z,13.00
2023-04-08T16:43:18.936Z,12.97
2023-04-08T16:45:47.125Z,12.88
2023-04-08T16:48:15.618Z,12.86
2023-04-08T16:50:43.928Z,12.76
2023-04-08T16:53:12.004Z,12.78
2023-04-08T16:55:41.634Z,12.83
2023-04-08T16:58:09.856Z,12.82
2023-04-08T17:00:38.113Z,12.74
2023-04-08T17:03:06.629Z,12.70
2023-04-08T17:05:34.981Z,12.66
2023-04-08T17:08:03.628Z,12.60
2023-04-08T17:10:31.875Z,12.64
2023-04-08T17:13:01.740Z,12.60
2023-04-08T17:15:30.070Z,12.54
2023-04-08T17:17:58.304Z,12.51
2023-04-08T17:20:28.099Z,12.48
2023-04-08T17:22:57.493Z,12.45
2023-04-08T17:25:25.686Z,12.47
2023-04-08T17:27:54.059Z,12.45
2023-04-08T17:30:23.841Z,12.47
2023-04-08T17:32:52.248Z,12.40
2023-04-08T17:35:20.692Z,12.36
2023-04-08T17:37:50.457Z,12.30
2023-04-08T17:40:19.112Z,12.27
2023-04-08T17:42:47.584Z,12.22
2023-04-08T17:45:15.939Z,12.12
2023-04-08T17:47:45.681Z,12.15
2023-04-08T17:50:13.950Z,12.15
2023-04-08T17:52:44.299Z,12.11
2023-04-08T17:55:12.469Z,12.21
2023-04-08T17:57:40.594Z,12.18
2023-04-08T18:00:09.839Z,12.27
2023-04-08T18:02:39.252Z,12.17
2023-04-08T18:05:10.172Z,12.07
2023-04-08T18:07:38.354Z,12.05
2023-04-08T18:10:07.567Z,12.04
2023-04-08T18:12:35.837Z,12.11
2023-04-08T18:15:04.027Z,12.10
2023-04-08T18:17:32.229Z,12.00
2023-04-08T18:20:00.506Z,11.94
2023-04-08T18:22:30.178Z,11.80
2023-04-08T18:24:58.555Z,11.65
2023-04-08T18:27:26.679Z,11.69
2023-04-08T18:29:55.274Z,11.65
2023-04-08T18:32:23.544Z,11.63
2023-04-08T18:34:53.131Z,11.61
2023-04-08T18:37:21.911Z,11.60
2023-04-08T18:39:51.723Z,11.70
2023-04-08T18:42:19.992Z,11.65
2023-04-08T18:44:50.073Z,11.70
2023-04-08T18:47:18.862Z,11.74
2023-04-08T18:49:46.948Z,11.70
2023-04-08T18:52:15.081Z,11.68
2023-04-08T18:54:43.297Z,11.61
2023-04-08T18:57:13.099Z,11.55
2023-04-08T18:59:41.259Z,11.42
2023-04-08T19:02:09.496Z,11.43
2023-04-08T19:04:38.592Z,11.27
2023-04-08T19:07:06.810Z,11.26
2023-04-08T19:09:35.087Z,11.16
2023-04-08T19:12:03.252Z,11.22
2023-04-08T19:14:32.835Z,11.13
2023-04-08T19:17:01.075Z,11.03
2023-04-08T19:19:29.338Z,10.98
2023-04-08T19:21:57.559Z,10.90
2023-04-08T19:24:25.820Z,10.94
2023-04-08T19:26:54.230Z,10.93
2023-04-08T19:29:23.479Z,10.92
2023-04-08T19:31:53.073Z,10.86
2023-04-08T19:34:21.569Z,10.83
2023-04-08T19:36:49.802Z,10.78
2023-04-08T19:39:18.728Z,10.75
2023-04-08T19:41:47.155Z,10.70
2023-04-08T19:44:15.992Z,10.75
2023-04-08T19:46:44.159Z,10.70
2023-04-08T19:49:13.801Z,10.54
2023-04-08T19:51:42.066Z,10.46
2023-04-08T19:54:10.388Z,10.44
2023-04-08T19:56:38.502Z,10.38
2023-04-08T19:59:06.981Z,10.42
2023-04-08T20:01:36.143Z,10.43
2023-04-08T20:04:05.737Z,10.37
2023-04-08T20:06:36.118Z,10.30
2023-04-08T20:09:06.048Z,10.25
2023-04-08T20:11:34.227Z,10.21
2023-04-08T20:14:02.351Z,10.14
2023-04-08T20:16:31.113Z,10.08
2023-04-08T20:18:59.522Z,9.97
2023-04-08T20:21:27.952Z,10.00
2023-04-08T20:23:57.907Z,9.88
2023-04-08T20:26:26.258Z,9.80
2023-04-08T20:28:56.990Z,10.03
2023-04-08T20:31:26.857Z,9.91
2023-04-08T20:33:55.629Z,9.94
2023-04-08T20:36:24.799Z,9.95
2023-04-08T20:38:53.620Z,9.77
2023-04-08T20:41:26.037Z,9.70
2023-04-08T20:43:55.600Z,9.64
2023-04-08T20:46:24.663Z,9.63
2023-04-08T20:48:54.214Z,9.56
2023-04-08T20:51:22.797Z,9.65
2023-04-08T20:53:52.790Z,9.67
2023-04-08T20:56:22.960Z,9.77
2023-04-08T20:58:51.698Z,9.80
2023-04-08T21:01:20.058Z,9.86
2023-04-08T21:03:48.402Z,9.84
2023-04-08T21:06:19.688Z,9.71
2023-04-08T21:08:48.881Z,9.65
2023-04-08T21:11:19.044Z,9.67
2023-04-08T21:13:49.216Z,9.63
2023-04-08T21:16:18.087Z,9.61
2023-04-08T21:18:46.166Z,9.56
2023-04-08T21:21:14.453Z,9.47
2023-04-08T21:23:43.177Z,9.37
2023-04-08T21:26:14.703Z,9.41
2023-04-08T21:28:44.199Z,9.50
2023-04-08T21:31:14.766Z,9.54
2023-04-08T21:33:43.114Z,9.57
2023-04-08T21:36:11.405Z,9.48
2023-04-08T21:38:39.672Z,9.48
2023-04-08T21:41:07.842Z,9.35
2023-04-08T21:43:37.097Z,9.34
2023-04-08T21:46:06.173Z,9.32
2023-04-08T21:48:36.172Z,9.24
2023-04-08T21:51:07.060Z,9.30
2023-04-08T21:53:35.222Z,9.19
2023-04-08T21:56:03.433Z,9.16
2023-04-08T21:58:31.513Z,9.09
2023-04-08T22:00:59.624Z,9.04
2023-04-08T22:03:27.842Z,8.98
2023-04-08T22:05:59.754Z,8.90
2023-04-08T22:08:27.957Z,8.87
2023-04-08T22:10:56.083Z,8.83
2023-04-08T22:13:24.225Z,8.79
2023-04-08T22:15:52.512Z,8.71
2023-04-08T22:18:20.684Z,8.70
2023-04-08T22:20:48.958Z,8.78
2023-04-08T22:23:18.749Z,8.74
2023-04-08T22:25:50.218Z,8.74
2023-04-08T22:28:18.539Z,8.70
2023-04-08T22:30:47.198Z,8.70
2023-04-08T22:33:15.423Z,8.78
2023-04-08T22:35:43.808Z,8.71
2023-04-08T22:38:11.979Z,8.69
2023-04-08T22:40:41.503Z,8.76
2023-04-08T22:43:09.764Z,8.79
2023-04-08T22:45:38.213Z,8.82
2023-04-08T22:48:06.796Z,8.81
2023-04-08T22:50:34.899Z,8.75
2023-04-08T22:53:06.351Z,8.59
2023-04-08T22:55:34.697Z,8.66
2023-04-08T22:58:04.278Z,8.64
2023-04-08T23:00:32.403Z,8.64
2023-04-08T23:03:04.719Z,8.59
2023-04-08T23:05:33.632Z,8.55
2023-04-08T23:08:01.802Z,8.54
2023-04-08T23:10:29.852Z,8.54
2023-04-08T23:12:57.964Z,8.47
2023-04-08T23:15:27.489Z,8.33
2023-04-08T23:17:55.881Z,8.24
2023-04-08T23:20:24.061Z,8.16
2023-04-08T23:22:52.972Z,7.98
2023-04-08T23:25:21.365Z,8.13
2023-04-08T23:27:49.636Z,8.14
2023-04-08T23:30:17.817Z,8.10
2023-04-08T23:32:47.415Z,8.11
2023-04-08T23:35:16.642Z,8.03
2023-04-08T23:37:44.876Z,8.02
2023-04-08T23:40:13.524Z,8.02
2023-04-08T23:42:41.686Z,7.98
2023-04-08T23:45:10.555Z,7.83
2023-04-08T23:47:38.847Z,7.82
2023-04-08T23:50:09.872Z,7.83
2023-04-08T23:52:38.022Z,7.85
2023-04-08T23:55:06.863Z,7.80
2023-04-08T23:57:35.028Z,7.78
